sensor_id;sensor_type;location;lat;lon;timestamp;P1;durP1;ratioP1;P2;durP2;ratioP2
53867;SDS011;41577;47.470;19.080;2023-03-01T00:00:00;27.05;;;16.85;;
53867;SDS011;41577;47.470;19.080;2023-03-01T00:00:22;23.70;;;17.27;;
53867;SDS011;41577;47.470;19.080;2023-03-01T00:00:34;22.02;;;17.90;;
53867;SDS011;41577;47.470;19.080;2023-03-01T00:00:47;24.65;;;17.83;;
53867;SDS011;41577;47.470;19.080;2023-03-01T00:01:02;23.20;;;17.17;;
53867;SDS011;41577;47.470;19.080;2023-03-01T00:01:16;24.35;;;17.50;;
53867;SDS011;41577;47.470;19.080;2023-03-01T00:01:30;22.75;;;17.20;;
53867;SDS011;41577;47.470;19.080;2023-03-01T00:01:43;22.17;;;17.70;;
53867;SDS011;41577;47.470;19.080;2023-03-01T00:01:56;22.77;;;19.00;;
53867;SDS011;41577;47.470;19.080;2023-03-01T00:02:08;25.50;;;19.63;;
53867;SDS011;41577;47.470;19.080;2023-03-01T00:02:20;24.00;;;18.90;;
53867;SDS011;41577;47.470;19.080;2023-03-01T00:02:35;22.90;;;18.95;;
53867;SDS011;41577;47.470;19.080;2023-03-01T00:02:48;25.05;;;19.10;;
53867;SDS011;41577;47.470;19.080;2023-03-01T00:03:01;27.42;;;18.80;;
53867;SDS011;41577;47.470;19.080;2023-03-01T00:03:14;26.15;;;18.60;;
53867;SDS011;41577;47.470;19.080;2023-03-01T00:03:28;24.83;;;18.67;;
53867;SDS011;41577;47.470;19.080;2023-03-01T00:03:41;25.30;;;18.88;;
53867;SDS011;41577;47.470;19.080;2023-03-01T00:03:53;24.58;;;18.73;;
53867;SDS011;41577;47.470;19.080;2023-03-01T00:04:06;23.90;;;18.38;;
53867;SDS011;41577;47.470;19.080;2023-03-01T00:04:19;22.17;;;18.02;;
53867;SDS011;41577;47.470;19.080;2023-03-01T00:04:32;25.58;;;18.80;;
53867;SDS011;41577;47.470;19.080;2023-03-01T00:04:45;25.33;;;18.50;;
53867;SDS011;41577;47.470;19.080;2023-03-01T00:04:58;27.55;;;18.52;;
53867;SDS011;41577;47.470;19.080;2023-03-01T00:05:11;28.08;;;18.42;;
53867;SDS011;41577;47.470;19.080;2023-03-01T00:05:23;25.32;;;17.98;;
53867;SDS011;41577;47.470;19.080;2023-03-01T00:05:36;21.50;;;17.73;;
53867;SDS011;41577;47.470;19.080;2023-03-01T00:05:56;24.67;;;18.85;;
53867;SDS011;41577;47.470;19.080;2023-03-01T00:06:09;25.35;;;18.88;;
53867;SDS011;41577;47.470;19.080;2023-03-01T00:06:22;23.35;;;18.67;;
53867;SDS011;41577;47.470;19.080;2023-03-01T00:06:34;23.27;;;18.63;;
53867;SDS011;41577;47.470;19.080;2023-03-01T00:06:47;24.65;;;19.25;;
53867;SDS011;41577;47.470;19.080;2023-03-01T00:07:00;25.23;;;19.75;;
53867;SDS011;41577;47.470;19.080;2023-03-01T00:07:12;28.38;;;20.15;;
53867;SDS011;41577;47.470;19.080;2023-03-01T00:07:25;29.55;;;19.77;;
53867;SDS011;41577;47.470;19.080;2023-03-01T00:07:37;28.77;;;19.45;;
53867;SDS011;41577;47.470;19.080;2023-03-01T00:07:51;27.95;;;19.33;;
53867;SDS011;41577;47.470;19.080;2023-03-01T00:08:04;23.10;;;18.58;;
53867;SDS011;41577;47.470;19.080;2023-03-01T00:08:16;25.33;;;19.30;;
53867;SDS011;41577;47.470;19.080;2023-03-01T00:08:29;27.05;;;20.08;;
53867;SDS011;41577;47.470;19.080;2023-03-01T00:08:43;25.08;;;19.45;;
53867;SDS011;41577;47.470;19.080;2023-03-01T00:08:55;22.00;;;18.70;;
53867;SDS011;41577;47.470;19.080;2023-03-01T00:09:08;23.52;;;18.92;;
53867;SDS011;41577;47.470;19.080;2023-03-01T00:09:20;27.42;;;19.67;;
53867;SDS011;41577;47.470;19.080;2023-03-01T00:09:33;28.58;;;19.73;;
53867;SDS011;41577;47.470;19.080;2023-03-01T00:09:45;27.58;;;19.73;;
53867;SDS011;41577;47.470;19.080;2023-03-01T00:09:58;28.10;;;18.85;;
53867;SDS011;41577;47.470;19.080;2023-03-01T00:10:11;29.10;;;18.92;;
53867;SDS011;41577;47.470;19.080;2023-03-01T00:10:25;28.92;;;19.63;;
53867;SDS011;41577;47.470;19.080;2023-03-01T00:10:37;28.05;;;19.75;;
53867;SDS011;41577;47.470;19.080;2023-03-01T00:10:59;30.58;;;19.75;;
53867;SDS011;41577;47.470;19.080;2023-03-01T00:11:13;27.63;;;20.20;;
53867;SDS011;41577;47.470;19.080;2023-03-01T00:11:26;28.75;;;20.92;;
53867;SDS011;41577;47.470;19.080;2023-03-01T00:11:40;27.20;;;20.40;;
53867;SDS011;41577;47.470;19.080;2023-03-01T00:11:52;27.27;;;19.95;;
53867;SDS011;41577;47.470;19.080;2023-03-01T00:12:05;25.65;;;20.00;;
53867;SDS011;41577;47.470;19.080;2023-03-01T00:12:18;25.30;;;20.17;;
53867;SDS011;41577;47.470;19.080;2023-03-01T00:12:31;25.85;;;19.88;;
53867;SDS011;41577;47.470;19.080;2023-03-01T00:12:43;25.58;;;19.85;;
53867;SDS011;41577;47.470;19.080;2023-03-01T00:12:55;24.33;;;19.92;;
53867;SDS011;41577;47.470;19.080;2023-03-01T00:13:07;22.52;;;19.73;;
53867;SDS011;41577;47.470;19.080;2023-03-01T00:13:20;25.73;;;20.55;;
53867;SDS011;41577;47.470;19.080;2023-03-01T00:13:33;27.40;;;20.77;;
53867;SDS011;41577;47.470;19.080;2023-03-01T00:13:46;29.00;;;20.60;;
53867;SDS011;41577;47.470;19.080;2023-03-01T00:14:01;28.98;;;20.95;;
53867;SDS011;41577;47.470;19.080;2023-03-01T00:14:15;24.77;;;20.50;;
53867;SDS011;41577;47.470;19.080;2023-03-01T00:14:32;24.48;;;19.85;;
53867;SDS011;41577;47.470;19.080;2023-03-01T00:14:44;25.90;;;19.73;;
53867;SDS011;41577;47.470;19.080;2023-03-01T00:14:57;25.63;;;19.58;;
53867;SDS011;41577;47.470;19.080;2023-03-01T00:15:09;27.95;;;19.85;;
53867;SDS011;41577;47.470;19.080;2023-03-01T00:15:22;29.15;;;20.27;;
53867;SDS011;41577;47.470;19.080;2023-03-01T00:15:37;27.18;;;20.70;;
53867;SDS011;41577;47.470;19.080;2023-03-01T00:15:52;26.30;;;20.00;;
53867;SDS011;41577;47.470;19.080;2023-03-01T00:16:05;32.45;;;19.73;;
53867;SDS011;41577;47.470;19.080;2023-03-01T00:16:21;30.75;;;20.00;;
53867;SDS011;41577;47.470;19.080;2023-03-01T00:16:37;24.50;;;20.08;;
53867;SDS011;41577;47.470;19.080;2023-03-01T00:16:51;28.20;;;20.10;;
53867;SDS011;41577;47.470;19.080;2023-03-01T00:17:05;29.08;;;20.58;;
53867;SDS011;41577;47.470;19.080;2023-03-01T00:17:18;26.50;;;20.42;;
53867;SDS011;41577;47.470;19.080;2023-03-01T00:17:31;27.83;;;20.15;;
53867;SDS011;41577;47.470;19.080;2023-03-01T00:17:46;29.35;;;20.02;;
53867;SDS011;41577;47.470;19.080;2023-03-01T00:17:58;30.73;;;20.42;;
53867;SDS011;41577;47.470;19.080;2023-03-01T00:18:11;31.13;;;20.92;;
53867;SDS011;41577;47.470;19.080;2023-03-01T00:18:23;28.33;;;21.30;;
53867;SDS011;41577;47.470;19.080;2023-03-01T00:18:36;28.33;;;20.83;;
53867;SDS011;41577;47.470;19.080;2023-03-01T00:18:48;26.10;;;20.10;;
53867;SDS011;41577;47.470;19.080;2023-03-01T00:19:01;28.15;;;19.70;;
53867;SDS011;41577;47.470;19.080;2023-03-01T00:19:15;36.05;;;20.55;;
53867;SDS011;41577;47.470;19.080;2023-03-01T00:19:28;32.88;;;20.90;;
53867;SDS011;41577;47.470;19.080;2023-03-01T00:19:41;35.20;;;20.88;;
53867;SDS011;41577;47.470;19.080;2023-03-01T00:19:53;36.40;;;20.75;;
53867;SDS011;41577;47.470;19.080;2023-03-01T00:20:07;29.50;;;20.92;;
53867;SDS011;41577;47.470;19.080;2023-03-01T00:20:20;28.10;;;21.27;;
53867;SDS011;41577;47.470;19.080;2023-03-01T00:20:32;27.02;;;21.70;;
53867;SDS011;41577;47.470;19.080;2023-03-01T00:20:48;25.38;;;21.33;;
53867;SDS011;41577;47.470;19.080;2023-03-01T00:21:01;25.63;;;19.70;;
53867;SDS011;41577;47.470;19.080;2023-03-01T00:21:16;26.50;;;19.94;;
53867;SDS011;41577;47.470;19.080;2023-03-01T00:21:29;27.02;;;20.83;;
53867;SDS011;41577;47.470;19.080;2023-03-01T00:21:41;25.80;;;20.77;;
53867;SDS011;41577;47.470;19.080;2023-03-01T00:21:54;24.90;;;20.95;;
53867;SDS011;41577;47.470;19.080;2023-03-01T00:22:07;24.25;;;21.02;;
53867;SDS011;41577;47.470;19.080;2023-03-01T00:22:19;25.40;;;21.35;;
53867;SDS011;41577;47.470;19.080;2023-03-01T00:22:33;26.48;;;21.05;;
53867;SDS011;41577;47.470;19.080;2023-03-01T00:22:46;28.30;;;21.30;;
53867;SDS011;41577;47.470;19.080;2023-03-01T00:22:58;26.63;;;21.52;;
53867;SDS011;41577;47.470;19.080;2023-03-01T00:23:11;26.95;;;21.15;;
53867;SDS011;41577;47.470;19.080;2023-03-01T00:23:23;28.73;;;21.45;;
53867;SDS011;41577;47.470;19.080;2023-03-01T00:23:36;29.33;;;21.60;;
53867;SDS011;41577;47.470;19.080;2023-03-01T00:23:49;28.95;;;21.52;;
53867;SDS011;41577;47.470;19.080;2023-03-01T00:24:03;29.00;;;21.38;;
53867;SDS011;41577;47.470;19.080;2023-03-01T00:24:15;29.70;;;21.30;;
53867;SDS011;41577;47.470;19.080;2023-03-01T00:24:28;28.10;;;21.60;;
53867;SDS011;41577;47.470;19.080;2023-03-01T00:24:40;26.10;;;21.73;;
53867;SDS011;41577;47.470;19.080;2023-03-01T00:24:54;23.65;;;20.85;;
53867;SDS011;41577;47.470;19.080;2023-03-01T00:25:06;25.58;;;21.00;;
53867;SDS011;41577;47.470;19.080;2023-03-01T00:25:19;27.65;;;21.85;;
53867;SDS011;41577;47.470;19.080;2023-03-01T00:25:32;29.25;;;22.45;;
53867;SDS011;41577;47.470;19.080;2023-03-01T00:25:45;29.77;;;22.23;;
53867;SDS011;41577;47.470;19.080;2023-03-01T00:25:58;27.98;;;21.33;;
53867;SDS011;41577;47.470;19.080;2023-03-01T00:26:12;29.23;;;21.70;;
53867;SDS011;41577;47.470;19.080;2023-03-01T00:26:27;29.92;;;21.98;;
53867;SDS011;41577;47.470;19.080;2023-03-01T00:26:40;28.83;;;22.10;;
53867;SDS011;41577;47.470;19.080;2023-03-01T00:26:53;26.27;;;21.92;;
53867;SDS011;41577;47.470;19.080;2023-03-01T00:27:05;26.70;;;21.15;;
53867;SDS011;41577;47.470;19.080;2023-03-01T00:27:17;27.08;;;21.38;;
53867;SDS011;41577;47.470;19.080;2023-03-01T00:27:29;31.45;;;21.13;;
53867;SDS011;41577;47.470;19.080;2023-03-01T00:27:42;31.67;;;20.92;;
53867;SDS011;41577;47.470;19.080;2023-03-01T00:27:55;29.60;;;21.00;;
53867;SDS011;41577;47.470;19.080;2023-03-01T00:28:08;24.65;;;20.42;;
53867;SDS011;41577;47.470;19.080;2023-03-01T00:28:20;22.92;;;19.73;;
53867;SDS011;41577;47.470;19.080;2023-03-01T00:28:33;22.13;;;19.73;;
53867;SDS011;41577;47.470;19.080;2023-03-01T00:28:47;26.00;;;20.33;;
53867;SDS011;41577;47.470;19.080;2023-03-01T00:29:00;28.15;;;20.13;;
53867;SDS011;41577;47.470;19.080;2023-03-01T00:29:13;27.45;;;20.13;;
53867;SDS011;41577;47.470;19.080;2023-03-01T00:29:26;27.45;;;20.20;;
53867;SDS011;41577;47.470;19.080;2023-03-01T00:29:39;29.05;;;20.50;;
53867;SDS011;41577;47.470;19.080;2023-03-01T00:29:53;27.92;;;20.27;;
53867;SDS011;41577;47.470;19.080;2023-03-01T00:30:07;28.02;;;20.05;;
53867;SDS011;41577;47.470;19.080;2023-03-01T00:30:23;27.30;;;20.33;;
53867;SDS011;41577;47.470;19.080;2023-03-01T00:30:37;26.38;;;20.45;;
53867;SDS011;41577;47.470;19.080;2023-03-01T00:30:50;30.08;;;20.80;;
53867;SDS011;41577;47.470;19.080;2023-03-01T00:31:03;31.58;;;21.67;;
53867;SDS011;41577;47.470;19.080;2023-03-01T00:31:18;32.03;;;21.38;;
53867;SDS011;41577;47.470;19.080;2023-03-01T00:31:33;28.50;;;20.35;;
53867;SDS011;41577;47.470;19.080;2023-03-01T00:31:47;26.20;;;19.80;;
53867;SDS011;41577;47.470;19.080;2023-03-01T00:32:01;26.35;;;19.45;;
53867;SDS011;41577;47.470;19.080;2023-03-01T00:32:13;27.90;;;19.77;;
53867;SDS011;41577;47.470;19.080;2023-03-01T00:32:29;28.13;;;20.52;;
53867;SDS011;41577;47.470;19.080;2023-03-01T00:32:41;27.10;;;20.90;;
53867;SDS011;41577;47.470;19.080;2023-03-01T00:32:56;36.55;;;21.05;;
53867;SDS011;41577;47.470;19.080;2023-03-01T00:33:08;39.88;;;20.88;;
53867;SDS011;41577;47.470;19.080;2023-03-01T00:33:21;32.42;;;20.45;;
53867;SDS011;41577;47.470;19.080;2023-03-01T00:33:35;26.52;;;19.65;;
53867;SDS011;41577;47.470;19.080;2023-03-01T00:33:51;25.20;;;19.85;;
53867;SDS011;41577;47.470;19.080;2023-03-01T00:34:04;27.40;;;20.75;;
53867;SDS011;41577;47.470;19.080;2023-03-01T00:34:18;25.63;;;21.13;;
53867;SDS011;41577;47.470;19.080;2023-03-01T00:34:30;24.35;;;20.75;;
53867;SDS011;41577;47.470;19.080;2023-03-01T00:34:44;24.50;;;20.55;;
53867;SDS011;41577;47.470;19.080;2023-03-01T00:34:57;28.38;;;21.10;;
53867;SDS011;41577;47.470;19.080;2023-03-01T00:35:09;30.05;;;20.92;;
53867;SDS011;41577;47.470;19.080;2023-03-01T00:35:22;26.13;;;19.88;;
53867;SDS011;41577;47.470;19.080;2023-03-01T00:35:36;29.30;;;19.38;;
53867;SDS011;41577;47.470;19.080;2023-03-01T00:35:49;30.65;;;19.52;;
53867;SDS011;41577;47.470;19.080;2023-03-01T00:36:02;30.67;;;19.98;;
53867;SDS011;41577;47.470;19.080;2023-03-01T00:36:16;27.23;;;19.83;;
53867;SDS011;41577;47.470;19.080;2023-03-01T00:36:29;25.20;;;19.35;;
53867;SDS011;41577;47.470;19.080;2023-03-01T00:36:44;23.92;;;19.95;;
53867;SDS011;41577;47.470;19.080;2023-03-01T00:36:57;24.50;;;20.27;;
53867;SDS011;41577;47.470;19.080;2023-03-01T00:37:09;25.25;;;20.30;;
53867;SDS011;41577;47.470;19.080;2023-03-01T00:37:22;26.98;;;20.38;;
53867;SDS011;41577;47.470;19.080;2023-03-01T00:37:35;27.90;;;21.00;;
53867;SDS011;41577;47.470;19.080;2023-03-01T00:37:47;28.42;;;21.98;;
53867;SDS011;41577;47.470;19.080;2023-03-01T00:38:00;29.27;;;22.13;;
53867;SDS011;41577;47.470;19.080;2023-03-01T00:38:14;30.15;;;23.33;;
53867;SDS011;41577;47.470;19.080;2023-03-01T00:38:26;32.08;;;25.02;;
53867;SDS011;41577;47.470;19.080;2023-03-01T00:38:42;32.95;;;24.65;;
53867;SDS011;41577;47.470;19.080;2023-03-01T00:38:56;31.38;;;24.40;;
53867;SDS011;41577;47.470;19.080;2023-03-01T00:39:11;32.08;;;26.13;;
53867;SDS011;41577;47.470;19.080;2023-03-01T00:39:26;28.92;;;25.10;;
53867;SDS011;41577;47.470;19.080;2023-03-01T00:39:40;25.48;;;22.55;;
53867;SDS011;41577;47.470;19.080;2023-03-01T00:39:52;26.38;;;22.25;;
53867;SDS011;41577;47.470;19.080;2023-03-01T00:40:06;27.45;;;22.42;;
53867;SDS011;41577;47.470;19.080;2023-03-01T00:40:20;26.27;;;20.90;;
53867;SDS011;41577;47.470;19.080;2023-03-01T00:40:33;25.13;;;21.02;;
53867;SDS011;41577;47.470;19.080;2023-03-01T00:40:47;27.55;;;21.58;;
53867;SDS011;41577;47.470;19.080;2023-03-01T00:41:02;27.88;;;21.10;;
53867;SDS011;41577;47.470;19.080;2023-03-01T00:41:16;27.65;;;21.15;;
53867;SDS011;41577;47.470;19.080;2023-03-01T00:41:31;28.25;;;21.65;;
53867;SDS011;41577;47.470;19.080;2023-03-01T00:41:43;27.85;;;22.20;;
53867;SDS011;41577;47.470;19.080;2023-03-01T00:41:58;29.05;;;22.85;;
53867;SDS011;41577;47.470;19.080;2023-03-01T00:42:13;25.15;;;21.38;;
53867;SDS011;41577;47.470;19.080;2023-03-01T00:42:26;23.00;;;20.17;;
53867;SDS011;41577;47.470;19.080;2023-03-01T00:42:39;24.67;;;19.27;;
53867;SDS011;41577;47.470;19.080;2023-03-01T00:42:52;26.35;;;18.27;;
53867;SDS011;41577;47.470;19.080;2023-03-01T00:43:04;25.48;;;17.70;;
53867;SDS011;41577;47.470;19.080;2023-03-01T00:43:17;25.98;;;17.77;;
53867;SDS011;41577;47.470;19.080;2023-03-01T00:43:29;24.17;;;18.25;;
53867;SDS011;41577;47.470;19.080;2023-03-01T00:43:41;23.38;;;18.50;;
53867;SDS011;41577;47.470;19.080;2023-03-01T00:43:54;26.70;;;19.10;;
53867;SDS011;41577;47.470;19.080;2023-03-01T00:44:07;27.52;;;19.23;;
53867;SDS011;41577;47.470;19.080;2023-03-01T00:44:23;26.35;;;18.48;;
53867;SDS011;41577;47.470;19.080;2023-03-01T00:44:38;24.83;;;17.73;;
53867;SDS011;41577;47.470;19.080;2023-03-01T00:44:51;24.63;;;17.48;;
53867;SDS011;41577;47.470;19.080;2023-03-01T00:45:06;27.38;;;17.90;;
53867;SDS011;41577;47.470;19.080;2023-03-01T00:45:20;28.65;;;18.30;;
53867;SDS011;41577;47.470;19.080;2023-03-01T00:45:32;26.65;;;18.48;;
53867;SDS011;41577;47.470;19.080;2023-03-01T00:45:45;23.08;;;18.58;;
53867;SDS011;41577;47.470;19.080;2023-03-01T00:46:01;22.67;;;18.60;;
53867;SDS011;41577;47.470;19.080;2023-03-01T00:46:14;22.88;;;18.67;;
53867;SDS011;41577;47.470;19.080;2023-03-01T00:46:29;22.73;;;18.98;;
53867;SDS011;41577;47.470;19.080;2023-03-01T00:46:42;21.17;;;18.55;;
53867;SDS011;41577;47.470;19.080;2023-03-01T00:46:56;22.08;;;18.45;;
53867;SDS011;41577;47.470;19.080;2023-03-01T00:47:09;23.00;;;19.10;;
53867;SDS011;41577;47.470;19.080;2023-03-01T00:47:23;23.88;;;19.85;;
53867;SDS011;41577;47.470;19.080;2023-03-01T00:47:38;25.50;;;19.92;;
53867;SDS011;41577;47.470;19.080;2023-03-01T00:47:50;24.35;;;19.33;;
53867;SDS011;41577;47.470;19.080;2023-03-01T00:48:05;25.20;;;19.50;;
53867;SDS011;41577;47.470;19.080;2023-03-01T00:48:17;25.27;;;19.55;;
53867;SDS011;41577;47.470;19.080;2023-03-01T00:48:30;26.77;;;19.33;;
53867;SDS011;41577;47.470;19.080;2023-03-01T00:48:42;27.05;;;19.45;;
53867;SDS011;41577;47.470;19.080;2023-03-01T00:48:57;24.65;;;18.80;;
53867;SDS011;41577;47.470;19.080;2023-03-01T00:49:10;23.55;;;18.45;;
53867;SDS011;41577;47.470;19.080;2023-03-01T00:49:22;25.08;;;18.48;;
53867;SDS011;41577;47.470;19.080;2023-03-01T00:49:34;25.25;;;19.00;;
53867;SDS011;41577;47.470;19.080;2023-03-01T00:49:47;26.20;;;19.60;;
53867;SDS011;41577;47.470;19.080;2023-03-01T00:50:00;24.85;;;19.05;;
53867;SDS011;41577;47.470;19.080;2023-03-01T00:50:13;25.70;;;19.20;;
53867;SDS011;41577;47.470;19.080;2023-03-01T00:50:26;24.13;;;19.75;;
53867;SDS011;41577;47.470;19.080;2023-03-01T00:50:39;23.60;;;19.27;;
53867;SDS011;41577;47.470;19.080;2023-03-01T00:50:53;25.25;;;19.00;;
53867;SDS011;41577;47.470;19.080;2023-03-01T00:51:07;25.40;;;19.00;;
53867;SDS011;41577;47.470;19.080;2023-03-01T00:51:21;23.48;;;19.33;;
53867;SDS011;41577;47.470;19.080;2023-03-01T00:51:35;23.74;;;19.20;;
53867;SDS011;41577;47.470;19.080;2023-03-01T00:51:48;25.20;;;19.35;;
53867;SDS011;41577;47.470;19.080;2023-03-01T00:52:01;24.85;;;19.35;;
53867;SDS011;41577;47.470;19.080;2023-03-01T00:52:14;24.20;;;19.55;;
53867;SDS011;41577;47.470;19.080;2023-03-01T00:52:27;23.23;;;19.80;;
53867;SDS011;41577;47.470;19.080;2023-03-01T00:52:41;24.30;;;19.83;;
53867;SDS011;41577;47.470;19.080;2023-03-01T00:52:53;25.50;;;19.42;;
53867;SDS011;41577;47.470;19.080;2023-03-01T00:53:08;27.17;;;19.50;;
53867;SDS011;41577;47.470;19.080;2023-03-01T00:53:22;26.77;;;19.55;;
53867;SDS011;41577;47.470;19.080;2023-03-01T00:53:35;25.60;;;19.85;;
53867;SDS011;41577;47.470;19.080;2023-03-01T00:53:50;25.08;;;19.15;;
53867;SDS011;41577;47.470;19.080;2023-03-01T00:54:03;23.80;;;18.40;;
53867;SDS011;41577;47.470;19.080;2023-03-01T00:54:16;24.15;;;18.48;;
53867;SDS011;41577;47.470;19.080;2023-03-01T00:54:29;24.38;;;19.20;;
53867;SDS011;41577;47.470;19.080;2023-03-01T00:54:41;24.45;;;19.15;;
53867;SDS011;41577;47.470;19.080;2023-03-01T00:54:54;22.38;;;18.80;;
53867;SDS011;41577;47.470;19.080;2023-03-01T00:55:10;21.80;;;18.50;;
53867;SDS011;41577;47.470;19.080;2023-03-01T00:55:24;23.48;;;18.42;;
53867;SDS011;41577;47.470;19.080;2023-03-01T00:55:37;24.02;;;18.60;;
53867;SDS011;41577;47.470;19.080;2023-03-01T00:55:50;23.13;;;18.60;;
53867;SDS011;41577;47.470;19.080;2023-03-01T00:56:03;29.17;;;18.55;;
53867;SDS011;41577;47.470;19.080;2023-03-01T00:56:18;33.83;;;18.75;;
53867;SDS011;41577;47.470;19.080;2023-03-01T00:56:30;31.08;;;18.83;;
53867;SDS011;41577;47.470;19.080;2023-03-01T00:56:45;22.92;;;18.23;;
53867;SDS011;41577;47.470;19.080;2023-03-01T00:56:58;23.48;;;18.05;;
53867;SDS011;41577;47.470;19.080;2023-03-01T00:57:10;24.50;;;18.85;;
53867;SDS011;41577;47.470;19.080;2023-03-01T00:57:23;24.95;;;18.52;;
53867;SDS011;41577;47.470;19.080;2023-03-01T00:57:35;22.95;;;18.85;;
53867;SDS011;41577;47.470;19.080;2023-03-01T00:57:48;24.13;;;18.77;;
53867;SDS011;41577;47.470;19.080;2023-03-01T00:58:01;24.38;;;18.33;;
53867;SDS011;41577;47.470;19.080;2023-03-01T00:58:15;23.73;;;18.52;;
53867;SDS011;41577;47.470;19.080;2023-03-01T00:58:29;25.33;;;18.98;;
53867;SDS011;41577;47.470;19.080;2023-03-01T00:58:41;24.85;;;18.95;;
53867;SDS011;41577;47.470;19.080;2023-03-01T00:58:54;27.13;;;18.38;;
53867;SDS011;41577;47.470;19.080;2023-03-01T00:59:07;26.73;;;18.45;;
53867;SDS011;41577;47.470;19.080;2023-03-01T00:59:25;24.13;;;18.80;;
53867;SDS011;41577;47.470;19.080;2023-03-01T00:59:38;23.00;;;18.15;;
53867;SDS011;41577;47.470;19.080;2023-03-01T00:59:51;26.17;;;18.55;;
53867;SDS011;41577;47.470;19.080;2023-03-01T01:00:03;28.95;;;18.88;;
53867;SDS011;41577;47.470;19.080;2023-03-01T01:00:17;26.42;;;18.15;;
53867;SDS011;41577;47.470;19.080;2023-03-01T01:00:31;22.42;;;18.17;;
53867;SDS011;41577;47.470;19.080;2023-03-01T01:00:44;25.55;;;18.55;;
53867;SDS011;41577;47.470;19.080;2023-03-01T01:00:56;26.90;;;18.63;;
53867;SDS011;41577;47.470;19.080;2023-03-01T01:01:10;23.63;;;18.10;;
53867;SDS011;41577;47.470;19.080;2023-03-01T01:01:24;23.17;;;18.25;;
53867;SDS011;41577;47.470;19.080;2023-03-01T01:01:39;22.38;;;19.10;;
53867;SDS011;41577;47.470;19.080;2023-03-01T01:01:51;22.85;;;18.70;;
53867;SDS011;41577;47.470;19.080;2023-03-01T01:02:04;21.75;;;18.35;;
53867;SDS011;41577;47.470;19.080;2023-03-01T01:02:16;21.65;;;18.45;;
53867;SDS011;41577;47.470;19.080;2023-03-01T01:02:29;22.27;;;18.33;;
53867;SDS011;41577;47.470;19.080;2023-03-01T01:02:43;23.33;;;17.88;;
53867;SDS011;41577;47.470;19.080;2023-03-01T01:02:59;23.55;;;17.25;;
53867;SDS011;41577;47.470;19.080;2023-03-01T01:03:14;26.08;;;17.85;;
53867;SDS011;41577;47.470;19.080;2023-03-01T01:03:26;26.15;;;18.70;;
53867;SDS011;41577;47.470;19.080;2023-03-01T01:03:38;22.98;;;18.40;;
53867;SDS011;41577;47.470;19.080;2023-03-01T01:03:53;23.15;;;18.02;;
53867;SDS011;41577;47.470;19.080;2023-03-01T01:04:07;21.66;;;17.78;;
53867;SDS011;41577;47.470;19.080;2023-03-01T01:04:21;21.13;;;17.67;;
53867;SDS011;41577;47.470;19.080;2023-03-01T01:04:33;21.65;;;18.17;;
53867;SDS011;41577;47.470;19.080;2023-03-01T01:04:48;25.10;;;18.83;;
53867;SDS011;41577;47.470;19.080;2023-03-01T01:05:01;25.65;;;18.75;;
53867;SDS011;41577;47.470;19.080;2023-03-01T01:05:13;23.48;;;18.05;;
53867;SDS011;41577;47.470;19.080;2023-03-01T01:05:25;23.25;;;18.13;;
53867;SDS011;41577;47.470;19.080;2023-03-01T01:05:38;25.25;;;18.92;;
53867;SDS011;41577;47.470;19.080;2023-03-01T01:05:52;25.58;;;18.67;;
53867;SDS011;41577;47.470;19.080;2023-03-01T01:06:05;24.58;;;17.85;;
53867;SDS011;41577;47.470;19.080;2023-03-01T01:06:17;24.83;;;17.73;;
53867;SDS011;41577;47.470;19.080;2023-03-01T01:06:32;24.42;;;18.00;;
53867;SDS011;41577;47.470;19.080;2023-03-01T01:06:47;23.85;;;18.33;;
53867;SDS011;41577;47.470;19.080;2023-03-01T01:07:00;21.83;;;18.08;;
53867;SDS011;41577;47.470;19.080;2023-03-01T01:07:13;22.63;;;18.00;;
53867;SDS011;41577;47.470;19.080;2023-03-01T01:07:26;21.77;;;17.88;;
53867;SDS011;41577;47.470;19.080;2023-03-01T01:07:39;21.98;;;18.02;;
53867;SDS011;41577;47.470;19.080;2023-03-01T01:07:54;22.75;;;18.08;;
53867;SDS011;41577;47.470;19.080;2023-03-01T01:08:08;26.38;;;18.38;;
53867;SDS011;41577;47.470;19.080;2023-03-01T01:08:21;25.35;;;18.40;;
53867;SDS011;41577;47.470;19.080;2023-03-01T01:08:33;23.40;;;18.00;;
53867;SDS011;41577;47.470;19.080;2023-03-01T01:08:45;22.17;;;17.83;;
53867;SDS011;41577;47.470;19.080;2023-03-01T01:08:58;23.30;;;17.88;;
53867;SDS011;41577;47.470;19.080;2023-03-01T01:09:12;23.40;;;17.83;;
53867;SDS011;41577;47.470;19.080;2023-03-01T01:09:26;24.27;;;17.63;;
53867;SDS011;41577;47.470;19.080;2023-03-01T01:09:38;24.15;;;17.48;;
53867;SDS011;41577;47.470;19.080;2023-03-01T01:09:51;21.58;;;17.20;;
53867;SDS011;41577;47.470;19.080;2023-03-01T01:10:04;23.20;;;17.70;;
53867;SDS011;41577;47.470;19.080;2023-03-01T01:10:17;23.27;;;17.80;;
53867;SDS011;41577;47.470;19.080;2023-03-01T01:10:30;21.20;;;17.67;;
53867;SDS011;41577;47.470;19.080;2023-03-01T01:10:43;20.92;;;17.60;;
53867;SDS011;41577;47.470;19.080;2023-03-01T01:10:55;24.55;;;17.95;;
53867;SDS011;41577;47.470;19.080;2023-03-01T01:11:09;26.70;;;18.08;;
53867;SDS011;41577;47.470;19.080;2023-03-01T01:11:21;22.40;;;18.17;;
53867;SDS011;41577;47.470;19.080;2023-03-01T01:11:35;26.63;;;18.02;;
53867;SDS011;41577;47.470;19.080;2023-03-01T01:11:49;26.83;;;18.25;;
53867;SDS011;41577;47.470;19.080;2023-03-01T01:12:03;22.95;;;19.42;;
53867;SDS011;41577;47.470;19.080;2023-03-01T01:12:18;30.20;;;20.42;;
53867;SDS011;41577;47.470;19.080;2023-03-01T01:12:30;32.55;;;19.83;;
53867;SDS011;41577;47.470;19.080;2023-03-01T01:12:44;25.90;;;18.17;;
53867;SDS011;41577;47.470;19.080;2023-03-01T01:12:56;24.67;;;17.60;;
53867;SDS011;41577;47.470;19.080;2023-03-01T01:13:08;22.05;;;18.20;;
53867;SDS011;41577;47.470;19.080;2023-03-01T01:13:21;22.73;;;18.65;;
53867;SDS011;41577;47.470;19.080;2023-03-01T01:13:34;28.00;;;18.98;;
53867;SDS011;41577;47.470;19.080;2023-03-01T01:13:47;29.45;;;18.80;;
53867;SDS011;41577;47.470;19.080;2023-03-01T01:14:00;24.83;;;18.30;;
53867;SDS011;41577;47.470;19.080;2023-03-01T01:14:13;22.50;;;18.48;;
53867;SDS011;41577;47.470;19.080;2023-03-01T01:14:25;23.42;;;18.15;;
53867;SDS011;41577;47.470;19.080;2023-03-01T01:14:38;25.27;;;17.88;;
53867;SDS011;41577;47.470;19.080;2023-03-01T01:14:52;26.50;;;18.05;;
53867;SDS011;41577;47.470;19.080;2023-03-01T01:15:05;24.80;;;18.13;;
53867;SDS011;41577;47.470;19.080;2023-03-01T01:15:17;24.10;;;18.40;;
53867;SDS011;41577;47.470;19.080;2023-03-01T01:15:32;22.33;;;17.98;;
53867;SDS011;41577;47.470;19.080;2023-03-01T01:15:47;22.70;;;17.75;;
53867;SDS011;41577;47.470;19.080;2023-03-01T01:16:00;21.88;;;17.73;;
53867;SDS011;41577;47.470;19.080;2023-03-01T01:16:12;20.63;;;17.52;;
53867;SDS011;41577;47.470;19.080;2023-03-01T01:16:26;21.23;;;17.80;;
53867;SDS011;41577;47.470;19.080;2023-03-01T01:16:41;21.55;;;18.05;;
53867;SDS011;41577;47.470;19.080;2023-03-01T01:16:53;25.60;;;18.35;;